Time;durP1;ratioP1;P1;durP2;ratioP2;P2;SDS_P1;SDS_P2;PMS_P1;PMS_P2;Temp;Humidity;BMP_temperature;BMP_pressure;BME280_temperature;BME280_humidity;BME280_pressure;Samples;Min_cycle;Max_cycle;Signal;HPM_P1;HPM_P2
2023/04/18 00:01:51;;;;;;;7.17;6.17;;;12.00;99.90;;;11.92;nan;101243.59;4991354;28;20639;-67
2023/04/18 00:04:18;;;;;;;7.43;5.37;;;12.00;99.90;;;11.92;nan;101244.44;4990770;28;20634;-68
2023/04/18 00:06:48;;;;;;;6.93;5.63;;;12.00;99.90;;;11.88;nan;101239.50;4991942;28;20642;-67
2023/04/18 00:09:15;;;;;;;8.60;5.97;;;12.00;99.90;;;11.86;nan;101228.31;4991440;28;21256;-67
2023/04/18 00:11:42;;;;;;;8.60;6.30;;;11.90;99.90;;;11.83;nan;101229.38;4993541;28;20638;-68
2023/04/18 00:14:09;;;;;;;7.93;5.90;;;11.90;99.90;;;11.82;nan;101229.47;4989814;28;20658;-68
2023/04/18 00:16:37;;;;;;;8.47;6.30;;;11.90;99.90;;;11.83;nan;101231.13;4990454;28;20634;-68
2023/04/18 00:19:07;;;;;;;8.10;6.37;;;11.90;99.90;;;11.77;nan;101227.16;4987188;28;20648;-68
2023/04/18 00:21:36;;;;;;;11.13;6.20;;;11.80;99.90;;;11.76;nan;101232.47;4979447;28;20630;-66
2023/04/18 00:24:03;;;;;;;4.00;3.57;;;11.80;99.90;;;11.77;nan;101226.31;4990330;28;20665;-66
2023/04/18 00:26:30;;;;;;;4.37;3.37;;;11.80;99.90;;;11.74;nan;101235.19;4990145;28;21190;-66
2023/04/18 00:28:57;;;;;;;4.13;3.80;;;11.80;99.90;;;11.69;nan;101227.66;4983759;28;20627;-66
2023/04/18 00:31:24;;;;;;;9.70;5.90;;;11.70;99.90;;;11.63;nan;101225.44;4980839;28;20732;-66
2023/04/18 00:33:51;;;;;;;6.37;5.73;;;11.70;99.90;;;11.57;nan;101214.56;4990104;28;20667;-68
2023/04/18 00:36:18;;;;;;;7.37;5.77;;;11.60;99.90;;;11.51;nan;101217.56;4989919;28;20634;-64
2023/04/18 00:38:45;;;;;;;7.10;5.73;;;11.60;99.90;;;11.45;nan;101215.38;4991127;28;20704;-66
2023/04/18 00:41:11;;;;;;;6.13;5.20;;;11.50;99.90;;;11.37;nan;101223.69;4989788;28;20701;-66
2023/04/18 00:43:38;;;;;;;9.23;5.83;;;11.40;99.90;;;11.27;nan;101214.81;4990780;28;20662;-67
2023/04/18 00:46:05;;;;;;;5.53;4.90;;;11.40;99.90;;;11.18;nan;101218.00;4989970;28;20635;-66
2023/04/18 00:48:32;;;;;;;7.73;5.90;;;11.20;99.90;;;11.11;nan;101214.16;4988630;28;21237;-66
2023/04/18 00:50:59;;;;;;;10.43;8.03;;;11.20;99.90;;;11.05;nan;101221.53;4989993;28;20666;-67
2023/04/18 00:53:27;;;;;;;10.17;7.80;;;11.10;99.90;;;11.03;nan;101223.41;4990562;28;20990;-65
2023/04/18 00:55:54;;;;;;;9.13;5.47;;;11.10;99.90;;;10.98;nan;101221.09;4988734;28;20652;-66
2023/04/18 00:58:22;;;;;;;5.67;4.20;;;11.00;99.90;;;10.97;nan;101218.59;4989940;28;20680;-66
2023/04/18 01:00:49;;;;;;;9.27;6.83;;;11.00;99.90;;;10.98;nan;101220.25;4986662;28;20642;-65
2023/04/18 01:03:17;;;;;;;6.20;5.47;;;11.00;99.90;;;10.92;nan;101211.84;4988109;28;20739;-67
2023/04/18 01:05:45;;;;;;;11.97;6.80;;;11.00;99.90;;;10.90;nan;101218.94;4989186;28;20614;-67
2023/04/18 01:08:13;;;;;;;11.40;7.93;;;11.00;99.90;;;10.86;nan;101212.25;4989866;28;20696;-67
2023/04/18 01:10:40;;;;;;;10.60;7.83;;;10.90;99.90;;;10.82;nan;101213.38;4989985;28;20658;-67
2023/04/18 01:13:16;;;;;;;14.93;7.30;;;10.90;99.90;;;10.78;nan;101214.53;4990312;28;20658;-67
2023/04/18 01:15:48;;;;;;;11.43;8.03;;;10.80;99.90;;;10.76;nan;101220.75;4990639;28;20614;-63
2023/04/18 01:18:16;;;;;;;13.53;7.40;;;10.80;99.90;;;10.72;nan;101211.47;4990009;28;20618;-67
2023/04/18 01:20:46;;;;;;;7.83;6.93;;;10.80;99.90;;;10.71;nan;101207.19;4988243;28;20625;-67
2023/04/18 01:23:15;;;;;;;8.20;5.87;;;10.80;99.90;;;10.64;nan;101204.13;4978257;28;20670;-68
2023/04/18 01:25:43;;;;;;;10.40;7.83;;;10.70;99.90;;;10.58;nan;101196.69;4970936;28;20627;-67
2023/04/18 01:28:12;;;;;;;8.63;5.73;;;10.70;99.90;;;10.54;nan;101200.41;4972129;28;21064;-66
2023/04/18 01:30:39;;;;;;;9.43;6.83;;;10.60;99.90;;;10.46;nan;101194.81;4991425;28;20661;-65
2023/04/18 01:33:06;;;;;;;9.67;7.23;;;10.50;99.90;;;10.42;nan;101202.94;4990138;28;21235;-67
2023/04/18 01:35:33;;;;;;;9.83;7.30;;;10.50;99.90;;;10.34;nan;101193.00;4991088;28;20732;-66
2023/04/18 01:38:00;;;;;;;10.03;7.20;;;10.40;99.90;;;10.31;nan;101198.38;4991449;28;20618;-66
2023/04/18 01:40:28;;;;;;;11.93;7.77;;;10.40;99.90;;;10.26;nan;101190.03;4994749;28;21050;-66
2023/04/18 01:42:55;;;;;;;10.73;6.67;;;10.30;99.90;;;10.25;nan;101193.56;4993973;28;20695;-64
2023/04/18 01:45:22;;;;;;;10.93;7.30;;;10.30;99.90;;;10.20;nan;101182.56;4982008;28;20988;-67
2023/04/18 01:47:49;;;;;;;10.03;8.10;;;10.20;99.90;;;10.19;nan;101185.25;4992729;28;20626;-66
2023/04/18 01:50:16;;;;;;;12.73;9.50;;;10.20;99.90;;;10.16;nan;101180.25;4991391;28;20677;-66
2023/04/18 01:52:43;;;;;;;12.70;9.53;;;10.20;99.90;;;10.15;nan;101176.81;4992739;28;20658;-67
2023/04/18 01:55:10;;;;;;;11.33;8.00;;;10.20;99.90;;;10.15;nan;101176.81;4990938;28;20629;-67
2023/04/18 01:57:37;;;;;;;13.40;9.07;;;10.20;99.90;;;10.13;nan;101178.66;4990368;28;20980;-67
2023/04/18 02:00:06;;;;;;;7.30;5.93;;;10.20;99.90;;;10.16;nan;101182.88;4988180;28;20629;-68
2023/04/18 02:02:33;;;;;;;10.80;6.97;;;10.20;99.90;;;10.11;nan;101180.53;5005285;22;20720;-66
2023/04/18 02:05:00;;;;;;;10.10;6.40;;;10.20;99.90;;;10.20;nan;101174.72;5043905;28;20653;-68
2023/04/18 02:07:27;;;;;;;11.60;7.93;;;10.10;99.90;;;10.19;nan;101177.44;5010423;28;20641;-67
2023/04/18 02:09:54;;;;;;;13.17;8.20;;;10.10;99.90;;;10.06;nan;101178.19;5011459;28;20667;-67
2023/04/18 02:12:21;;;;;;;17.60;7.30;;;10.10;99.90;;;10.05;nan;101180.88;5011944;28;21203;-65
2023/04/18 02:14:52;;;;;;;10.57;7.47;;;10.10;99.90;;;10.04;nan;101187.00;5012533;28;20629;-67
2023/04/18 02:17:23;;;;;;;11.57;6.73;;;10.10;99.90;;;10.18;nan;101179.22;4998030;28;20641;-67
2023/04/18 02:19:50;;;;;;;8.50;6.80;;;10.10;99.90;;;10.13;nan;101186.50;5009637;28;21013;-66
2023/04/18 02:22:17;;;;;;;11.13;7.17;;;10.00;99.90;;;10.10;nan;101186.63;5012879;28;20628;-67
2023/04/18 02:24:45;;;;;;;10.00;5.20;;;10.00;99.90;;;10.10;nan;101189.25;4981860;28;20618;-67
2023/04/18 02:27:12;;;;;;;9.77;6.93;;;9.90;99.90;;;10.13;nan;101189.09;4995171;28;21232;-66
2023/04/18 02:29:39;;;;;;;12.60;8.20;;;10.00;99.90;;;10.14;nan;101186.38;5007378;28;20700;-68
2023/04/18 02:32:06;;;;;;;10.87;8.23;;;10.00;99.90;;;10.16;nan;101191.50;5008513;28;20625;-67
2023/04/18 02:34:35;;;;;;;6.50;5.07;;;10.10;99.90;;;10.17;nan;101205.38;5009887;28;20669;-67
2023/04/18 02:37:03;;;;;;;13.60;7.80;;;10.10;99.90;;;10.21;nan;101197.28;5011724;28;20704;-66
2023/04/18 02:39:30;;;;;;;10.97;7.23;;;10.10;99.90;;;10.23;nan;101194.56;5012259;28;20638;-66
2023/04/18 02:41:57;;;;;;;9.50;6.20;;;10.10;99.90;;;10.27;nan;101196.06;5011686;28;20656;-67
2023/04/18 02:44:24;;;;;;;5.27;4.40;;;10.10;99.90;;;10.27;nan;101196.06;5011644;28;20665;-65
2023/04/18 02:46:51;;;;;;;8.87;6.60;;;10.20;99.90;;;10.32;nan;101194.00;5012996;28;20641;-67
2023/04/18 02:49:19;;;;;;;9.97;6.83;;;10.20;99.90;;;10.32;nan;101207.91;5011431;28;20637;-67
2023/04/18 02:51:45;;;;;;;8.87;6.87;;;10.20;99.90;;;10.28;nan;101193.38;5011923;28;20733;-67
2023/04/18 02:54:13;;;;;;;9.10;6.63;;;10.20;99.90;;;10.30;nan;101196.72;5008911;28;21026;-67
2023/04/18 02:56:41;;;;;;;9.90;7.13;;;10.20;99.90;;;10.29;nan;101192.44;5006101;28;20638;-67
2023/04/18 02:59:08;;;;;;;11.67;8.00;;;10.20;99.90;;;10.29;nan;101192.44;5003887;28;20637;-67
2023/04/18 03:01:35;;;;;;;11.23;8.43;;;10.20;99.90;;;10.29;nan;101189.81;5010983;28;21271;-65
2023/04/18 03:04:02;;;;;;;11.23;8.03;;;10.20;99.90;;;10.27;nan;101186.47;5010504;28;20669;-67
2023/04/18 03:06:30;;;;;;;14.47;7.70;;;10.20;99.90;;;10.25;nan;101180.50;5010597;28;20621;-66
2023/04/18 03:08:57;;;;;;;12.13;8.20;;;10.20;99.90;;;10.24;nan;101191.06;5008354;28;20641;-67
2023/04/18 03:11:24;;;;;;;9.30;6.50;;;10.20;99.90;;;10.28;nan;101187.31;5000638;28;20662;-67
2023/04/18 03:13:52;;;;;;;9.23;6.33;;;10.20;99.90;;;10.28;nan;101192.53;5002046;28;20654;-67
2023/04/18 03:16:19;;;;;;;10.00;6.27;;;10.20;99.90;;;10.26;nan;101192.63;4991453;28;20637;-67
2023/04/18 03:18:46;;;;;;;13.53;9.43;;;10.20;99.90;;;10.23;nan;101189.34;5012123;28;20608;-67
2023/04/18 03:21:13;;;;;;;9.70;7.30;;;10.10;99.90;;;10.23;nan;101190.19;5011234;28;20720;-67
2023/04/18 03:23:40;;;;;;;14.07;8.53;;;10.10;99.90;;;10.20;nan;101179.94;5010797;28;20657;-67
2023/04/18 03:26:07;;;;;;;16.10;8.20;;;10.10;99.90;;;10.21;nan;101183.41;5011811;28;20676;-67
2023/04/18 03:28:35;;;;;;;10.93;8.63;;;10.10;99.90;;;10.17;nan;101187.13;5011364;28;20625;-67
2023/04/18 03:31:11;;;;;;;12.80;8.57;;;10.10;99.90;;;10.12;nan;101190.88;5009699;28;20692;-67
2023/04/18 03:33:41;;;;;;;11.77;7.80;;;10.00;99.90;;;10.14;nan;101189.00;5006224;28;21030;-67
2023/04/18 03:36:08;;;;;;;13.23;8.67;;;10.00;99.90;;;10.13;nan;101183.88;5002083;28;21039;-68
2023/04/18 03:38:39;;;;;;;12.03;7.07;;;10.00;99.90;;;10.15;nan;101187.25;5010961;28;20625;-67
2023/04/18 03:41:23;;;;;;;9.47;6.33;;;10.00;99.90;;;10.07;nan;101181.63;5010515;28;21006;-67
2023/04/18 03:43:53;;;;;;;14.63;8.30;;;10.00;99.90;;;10.05;nan;101180.88;5004852;28;21388;-68
2023/04/18 03:46:20;;;;;;;17.60;9.60;;;10.00;99.90;;;10.02;nan;101188.88;4991670;28;20636;-67
2023/04/18 03:48:48;;;;;;;9.70;5.80;;;9.90;99.90;;;10.01;nan;101188.03;5000944;28;20640;-67
2023/04/18 03:51:16;;;;;;;16.13;8.90;;;9.90;99.90;;;10.05;nan;101186.09;5008323;28;20711;-68
2023/04/18 03:53:43;;;;;;;15.43;8.40;;;9.90;99.90;;;10.04;nan;101189.63;5002519;28;20661;-66
2023/04/18 03:56:13;;;;;;;10.47;8.27;;;9.90;99.90;;;10.03;nan;101188.78;5000702;28;20830;-67
2023/04/18 03:58:43;;;;;;;12.10;8.03;;;10.00;99.90;;;10.03;nan;101182.72;5008236;28;20640;-66
2023/04/18 04:01:20;;;;;;;18.27;9.00;;;10.00;99.90;;;10.03;nan;101196.59;5008341;28;20683;-67
2023/04/18 04:04:17;;;;;;;12.07;8.43;;;9.90;99.90;;;9.99;nan;101181.22;5009694;28;20673;-67
2023/04/18 04:06:45;;;;;;;11.77;8.17;;;9.90;99.90;;;9.98;nan;101187.41;5008643;28;21235;-67
2023/04/18 04:09:12;;;;;;;16.83;8.70;;;9.90;99.90;;;9.92;nan;101192.97;5009872;28;21201;-67
2023/04/18 04:11:39;;;;;;;11.00;8.07;;;9.80;99.90;;;9.86;nan;101188.16;5006672;28;21011;-66
2023/04/18 04:14:06;;;;;;;14.60;8.17;;;9.80;99.90;;;9.79;nan;101187.66;5008864;28;20661;-67
2023/04/18 04:16:33;;;;;;;12.83;9.03;;;9.70;99.90;;;9.76;nan;101193.06;5011038;28;21205;-67
2023/04/18 04:19:00;;;;;;;12.10;8.50;;;9.70;99.90;;;9.74;nan;101191.47;5010524;28;20629;-66
2023/04/18 04:21:27;;;;;;;14.10;8.30;;;9.70;99.90;;;9.68;nan;101190.06;5011491;28;20703;-68
2023/04/18 04:23:54;;;;;;;11.57;9.03;;;9.60;99.90;;;9.64;nan;101193.78;5011255;28;20661;-66
2023/04/18 04:26:22;;;;;;;13.57;8.73;;;9.50;99.90;;;9.59;nan;101187.16;5010161;28;21013;-67
2023/04/18 04:28:50;;;;;;;13.33;9.37;;;9.50;99.90;;;9.59;nan;101192.38;5004553;28;20635;-67
2023/04/18 04:31:17;;;;;;;11.07;7.93;;;9.50;99.90;;;9.59;nan;101194.97;4995558;28;20653;-67
2023/04/18 04:33:45;;;;;;;16.17;9.13;;;9.50;99.90;;;9.55;nan;101189.13;5007984;28;20657;-67
2023/04/18 04:36:13;;;;;;;14.07;9.10;;;9.50;99.90;;;9.52;nan;101185.88;5011280;28;20625;-67
2023/04/18 04:38:43;;;;;;;11.80;8.30;;;9.40;99.90;;;9.47;nan;101195.69;5008943;28;20626;-67
2023/04/18 04:41:10;;;;;;;12.23;8.00;;;9.40;99.90;;;9.43;nan;101191.59;5009962;28;20637;-67
2023/04/18 04:43:39;;;;;;;10.80;7.60;;;9.30;99.90;;;9.43;nan;101191.59;5009936;28;20718;-66
2023/04/18 04:46:07;;;;;;;16.27;9.40;;;9.30;99.90;;;9.38;nan;101184.06;5010184;28;20706;-67
2023/04/18 04:48:34;;;;;;;15.97;8.90;;;9.30;99.90;;;9.38;nan;101184.06;5008892;28;20644;-67
2023/04/18 04:51:01;;;;;;;13.43;8.50;;;9.30;99.90;;;9.34;nan;101193.81;5010245;28;20666;-66
2023/04/18 04:53:31;;;;;;;12.70;8.27;;;9.30;99.90;;;9.34;nan;101211.19;5009510;28;21087;-68
2023/04/18 04:55:58;;;;;;;10.07;7.23;;;9.20;99.90;;;9.36;nan;101202.38;5004277;28;20640;-68
2023/04/18 04:58:25;;;;;;;12.60;7.40;;;9.30;99.90;;;9.44;nan;101208.88;5003112;28;20629;-67
2023/04/18 05:00:53;;;;;;;10.57;7.60;;;9.30;99.90;;;9.54;nan;101210.06;5008107;28;21205;-67
2023/04/18 05:03:20;;;;;;;10.97;7.37;;;9.40;99.90;;;9.60;nan;101212.28;5011008;28;21046;-68
2023/04/18 05:05:47;;;;;;;13.20;7.90;;;9.50;99.90;;;9.64;nan;101221.59;5009833;28;20625;-66
2023/04/18 05:08:14;;;;;;;11.77;8.67;;;9.60;99.90;;;9.70;nan;101218.63;5010725;28;21033;-66
2023/04/18 05:10:42;;;;;;;11.63;8.17;;;9.60;99.90;;;9.76;nan;101220.88;5010643;28;20695;-67
2023/04/18 05:13:09;;;;;;;12.93;8.43;;;9.70;99.90;;;9.82;nan;101225.72;5010180;28;21034;-67
2023/04/18 05:15:36;;;;;;;10.33;8.03;;;9.70;99.90;;;9.81;nan;101218.84;5014043;28;20647;-66
2023/04/18 05:18:03;;;;;;;10.50;7.20;;;9.70;99.90;;;9.79;nan;101226.75;5014560;28;20682;-67
2023/04/18 05:20:30;;;;;;;11.77;7.13;;;9.70;99.90;;;9.78;nan;101234.66;5013923;28;20730;-67
2023/04/18 05:22:57;;;;;;;9.57;7.07;;;9.70;99.90;;;9.71;nan;101234.16;5013299;28;20755;-66
2023/04/18 05:25:24;;;;;;;11.57;8.57;;;9.60;99.90;;;9.68;nan;101238.72;5013987;28;20625;-66
2023/04/18 05:27:51;;;;;;;7.67;5.50;;;9.60;99.90;;;9.66;nan;101249.25;5013439;28;20594;-66
2023/04/18 05:30:18;;;;;;;9.90;6.43;;;9.60;99.90;;;9.63;nan;101245.97;5003883;28;20963;-67
2023/04/18 05:32:45;;;;;;;10.40;7.87;;;9.60;99.90;;;9.57;nan;101243.72;5009432;28;20681;-65
2023/04/18 05:35:13;;;;;;;7.80;5.80;;;9.50;99.90;;;9.57;nan;101249.78;5007327;28;20633;-67
2023/04/18 05:37:40;;;;;;;10.10;6.37;;;9.50;99.90;;;9.64;nan;101260.69;5009051;28;20629;-68
2023/04/18 05:40:08;;;;;;;8.50;6.57;;;9.60;99.90;;;9.71;nan;101254.19;5012740;28;20645;-69
2023/04/18 05:42:35;;;;;;;6.87;5.43;;;9.60;99.90;;;9.79;nan;101262.41;5006639;28;20999;-68
2023/04/18 05:45:02;;;;;;;13.37;6.70;;;9.70;99.90;;;9.84;nan;101269.00;5010752;28;20648;-67
2023/04/18 05:47:29;;;;;;;9.53;6.40;;;9.80;99.90;;;9.87;nan;101268.84;5013038;28;20633;-69
2023/04/18 05:49:56;;;;;;;14.63;8.70;;;9.80;99.90;;;9.92;nan;101260.75;5015134;28;20640;-67
2023/04/18 05:52:24;;;;;;;11.20;8.30;;;9.80;99.90;;;9.97;nan;101261.31;5010939;28;20666;-67
2023/04/18 05:54:52;;;;;;;11.80;9.00;;;9.90;99.90;;;10.00;nan;101255.91;5004449;28;20749;-68
2023/04/18 05:57:19;;;;;;;17.33;8.70;;;9.90;99.90;;;10.00;nan;101266.34;5007358;28;20676;-68
2023/04/18 05:59:46;;;;;;;10.77;6.73;;;10.00;99.90;;;10.02;nan;101264.50;5007713;28;20637;-68
2023/04/18 06:02:13;;;;;;;6.63;5.10;;;10.00;99.90;;;10.03;nan;101264.38;5009269;28;20682;-68
2023/04/18 06:04:41;;;;;;;11.27;8.33;;;10.00;99.90;;;9.98;nan;101269.06;5008608;28;21331;-68
2023/04/18 06:07:09;;;;;;;12.83;8.80;;;9.90;99.90;;;9.97;nan;101271.72;5008303;28;20668;-66
2023/04/18 06:09:36;;;;;;;14.00;8.87;;;9.90;99.90;;;9.91;nan;101270.34;5010591;28;20646;-68
2023/04/18 06:12:03;;;;;;;15.83;9.40;;;9.90;99.90;;;9.97;nan;101280.41;5012346;28;20658;-67
2023/04/18 06:14:30;;;;;;;13.67;9.50;;;9.90;99.90;;;9.95;nan;101271.81;5003814;28;20819;-68
2023/04/18 06:16:57;;;;;;;13.33;9.17;;;9.90;99.90;;;9.96;nan;101273.53;5013496;28;21307;-68
2023/04/18 06:19:24;;;;;;;12.30;7.43;;;9.90;99.90;;;9.98;nan;101279.47;5011107;28;20631;-68
2023/04/18 06:21:52;;;;;;;10.90;7.97;;;9.90;99.90;;;10.02;nan;101278.38;5006542;28;21273;-68
2023/04/18 06:24:19;;;;;;;8.33;6.00;;;9.90;99.90;;;10.12;nan;101278.69;5011879;28;21294;-68
2023/04/18 06:26:46;;;;;;;9.33;6.27;;;10.00;99.90;;;10.17;nan;101287.06;5005669;28;21291;-66
2023/04/18 06:29:16;;;;;;;9.60;6.70;;;10.00;99.90;;;10.20;nan;101273.84;5002965;28;21209;-68
2023/04/18 06:31:45;;;;;;;10.87;7.60;;;10.10;99.90;;;10.17;nan;101281.84;5007835;28;20683;-67
2023/04/18 06:34:12;;;;;;;12.87;8.67;;;10.10;99.90;;;10.17;nan;101276.63;5004697;28;20653;-67
2023/04/18 06:36:39;;;;;;;13.40;8.53;;;10.10;99.90;;;10.12;nan;101284.75;5006829;28;20641;-69
2023/04/18 06:39:06;;;;;;;12.17;7.30;;;10.10;99.90;;;10.13;nan;101282.97;5007049;28;20629;-69
2023/04/18 06:41:33;;;;;;;13.90;9.00;;;10.10;99.90;;;10.07;nan;101284.13;5012921;28;20637;-67
2023/04/18 06:44:02;;;;;;;11.67;8.10;;;10.00;99.90;;;10.00;nan;101292.41;5016424;28;20667;-67
2023/04/18 06:46:31;;;;;;;14.80;9.43;;;10.00;99.90;;;10.00;nan;101290.66;4998869;28;21024;-67
2023/04/18 06:48:59;;;;;;;11.73;7.77;;;9.90;99.90;;;9.91;nan;101285.13;5004270;28;21502;-65
2023/04/18 06:51:26;;;;;;;11.80;8.70;;;9.90;99.90;;;9.88;nan;101285.31;5000603;28;20672;-66
2023/04/18 06:53:53;;;;;;;12.10;8.50;;;9.80;99.90;;;9.89;nan;101285.22;4999234;28;20672;-67
2023/04/18 06:56:21;;;;;;;11.57;9.00;;;9.80;99.90;;;9.86;nan;101287.19;4997052;28;20642;-69
2023/04/18 06:58:48;;;;;;;15.70;8.77;;;9.80;99.90;;;9.84;nan;101291.63;5000688;28;20613;-65
2023/04/18 07:01:16;;;;;;;9.77;6.87;;;9.80;99.90;;;9.86;nan;101285.41;5005258;28;20641;-67
2023/04/18 07:03:43;;;;;;;14.40;9.13;;;9.80;99.90;;;9.86;nan;101292.41;5011150;28;20673;-66
2023/04/18 07:06:10;;;;;;;11.33;7.00;;;9.80;99.90;;;9.87;nan;101288.84;5007271;28;20638;-66
2023/04/18 07:08:37;;;;;;;14.27;9.20;;;9.80;99.90;;;9.89;nan;101287.00;4997614;28;20634;-67
2023/04/18 07:11:05;;;;;;;15.30;10.30;;;9.80;99.90;;;9.93;nan;101286.72;5005170;28;20637;-65
2023/04/18 07:13:32;;;;;;;16.43;8.80;;;9.90;99.90;;;9.98;nan;101286.47;5010451;28;20657;-66
2023/04/18 07:16:00;;;;;;;7.47;5.27;;;9.90;99.90;;;10.11;nan;101293.47;5012615;28;21177;-67
2023/04/18 07:18:28;;;;;;;12.97;8.60;;;10.00;99.90;;;10.27;nan;101295.16;5010934;28;20636;-66
2023/04/18 07:21:06;;;;;;;10.70;8.20;;;10.10;99.90;;;10.42;nan;101296.84;5011992;28;20617;-67
2023/04/18 07:23:33;;;;;;;15.50;9.60;;;10.30;99.90;;;10.60;nan;101291.38;5009441;28;20668;-66
2023/04/18 07:26:01;;;;;;;10.67;6.53;;;10.50;99.90;;;10.76;nan;101292.09;5009685;28;21172;-64
2023/04/18 07:28:30;;;;;;;14.43;8.90;;;10.60;99.90;;;10.85;nan;101288.91;5009529;28;20625;-66
2023/04/18 07:30:58;;;;;;;11.13;8.30;;;10.70;99.90;;;10.90;nan;101286.84;5009756;28;20628;-67
2023/04/18 07:33:24;;;;;;;11.40;8.10;;;10.80;99.90;;;10.98;nan;101288.13;5009997;28;20676;-65
2023/04/18 07:35:52;;;;;;;11.10;6.97;;;10.90;99.90;;;11.00;nan;101289.72;5008687;28;20719;-65
2023/04/18 07:38:19;;;;;;;13.10;7.30;;;10.90;99.90;;;10.99;nan;101295.84;5009708;28;20701;-66
2023/04/18 07:40:46;;;;;;;10.53;7.10;;;10.90;99.90;;;11.04;nan;101290.34;5009854;28;20636;-66
2023/04/18 07:43:13;;;;;;;11.93;7.40;;;10.90;99.90;;;11.04;nan;101292.97;5010055;28;21267;-66
2023/04/18 07:45:42;;;;;;;12.57;7.83;;;11.00;99.90;;;11.09;nan;101286.53;5012153;28;20691;-67
2023/04/18 07:48:09;;;;;;;12.33;8.00;;;11.00;99.90;;;11.17;nan;101286.88;4997651;28;20641;-66
2023/04/18 07:50:37;;;;;;;10.90;7.37;;;11.00;99.90;;;11.20;nan;101293.69;5001716;28;20639;-67
2023/04/18 07:53:04;;;;;;;10.90;7.33;;;11.10;99.90;;;11.22;nan;101282.16;5006728;28;20708;-68
2023/04/18 07:55:31;;;;;;;4.80;3.60;;;11.10;99.90;;;11.15;nan;101293.13;5006149;28;20625;-67
2023/04/18 07:57:58;;;;;;;9.03;6.83;;;11.10;99.90;;;11.19;nan;101286.75;4998944;28;20672;-65
2023/04/18 08:00:25;;;;;;;9.10;5.90;;;11.10;99.90;;;11.26;nan;101288.06;5002836;28;20626;-65
2023/04/18 08:05:20;;;;;;;11.73;7.57;;;11.20;99.90;;;11.35;nan;101296.13;5009115;28;20680;-66
2023/04/18 08:07:47;;;;;;;9.33;5.80;;;11.30;99.90;;;11.39;nan;101296.78;5008472;28;20641;-67
2023/04/18 08:10:14;;;;;;;12.70;8.60;;;11.30;99.90;;;11.48;nan;101304.00;5003853;28;20648;-68
2023/04/18 08:12:41;;;;;;;14.10;7.07;;;11.40;99.90;;;11.52;nan;101298.47;5008027;28;20669;-66
2023/04/18 08:15:09;;;;;;;10.90;6.63;;;11.50;99.90;;;11.57;nan;101301.66;5010144;28;20730;-67
2023/04/18 08:17:37;;;;;;;11.40;7.33;;;11.50;99.90;;;11.69;nan;101297.44;5009191;28;20691;-65
2023/04/18 08:20:05;;;;;;;12.80;6.53;;;11.60;99.90;;;11.82;nan;101298.28;5010052;28;20648;-64
2023/04/18 08:22:32;;;;;;;8.00;7.00;;;11.70;99.90;;;11.84;nan;101301.63;5009049;28;20648;-66
2023/04/18 08:25:00;;;;;;;11.73;8.10;;;11.80;99.90;;;11.84;nan;101304.22;4989976;28;20652;-66
2023/04/18 08:27:32;;;;;;;9.97;8.13;;;11.80;99.90;;;11.88;nan;101307.50;4994713;28;21193;-67
2023/04/18 08:29:59;;;;;;;8.50;5.93;;;11.80;99.90;;;11.99;nan;101312.84;5007664;28;20638;-68
2023/04/18 08:32:26;;;;;;;11.13;6.83;;;11.90;99.90;;;12.09;nan;101306.91;5001433;28;20662;-67
2023/04/18 08:34:54;;;;;;;8.50;6.00;;;12.00;99.90;;;12.20;nan;101307.00;4997297;28;20665;-67
2023/04/18 08:37:21;;;;;;;12.73;7.10;;;12.10;99.90;;;12.33;nan;101307.00;5003515;28;20618;-66
2023/04/18 08:39:49;;;;;;;8.83;6.93;;;12.20;99.90;;;12.30;nan;101305.44;5009514;28;21207;-65
2023/04/18 08:42:18;;;;;;;9.13;6.43;;;12.20;99.90;;;12.34;nan;101312.16;5010085;28;20617;-64
2023/04/18 08:44:46;;;;;;;8.70;5.83;;;12.30;99.90;;;12.41;nan;101308.13;5003620;28;20664;-66
2023/04/18 08:47:14;;;;;;;12.90;6.70;;;12.30;99.90;;;12.45;nan;101306.16;5008949;28;20703;-66
2023/04/18 08:49:44;;;;;;;5.97;4.30;;;12.40;99.90;;;12.48;nan;101305.13;5008185;28;20699;-66
2023/04/18 08:52:13;;;;;;;9.40;6.00;;;12.40;99.90;;;12.44;nan;101313.19;5008863;28;21032;-66
2023/04/18 08:54:43;;;;;;;9.27;5.87;;;12.30;99.90;;;12.45;nan;101311.41;5010970;28;20660;-65
2023/04/18 08:57:15;;;;;;;4.97;3.20;;;12.30;99.90;;;12.40;nan;101316.94;5011368;28;20629;-65
2023/04/18 08:59:45;;;;;;;10.63;7.33;;;12.30;99.90;;;12.29;nan;101316.84;5014093;28;20636;-65
2023/04/18 09:02:16;;;;;;;8.03;5.20;;;12.30;99.90;;;12.22;nan;101312.97;5011531;28;20668;-65
2023/04/18 09:04:51;;;;;;;7.50;4.67;;;12.20;99.90;;;12.20;nan;101320.06;5005606;28;20665;-65
2023/04/18 09:07:28;;;;;;;10.03;6.80;;;12.10;99.90;;;12.15;nan;101324.81;5003008;28;20622;-66
2023/04/18 09:09:57;;;;;;;11.57;8.30;;;12.10;99.90;;;12.14;nan;101320.50;5004009;28;20625;-66
2023/04/18 09:12:26;;;;;;;8.90;5.60;;;12.10;99.90;;;12.20;nan;101322.69;5002815;28;20677;-68
2023/04/18 09:14:59;;;;;;;28.50;13.30;;;12.10;99.90;;;12.27;nan;101317.88;5004562;28;20712;-66
2023/04/18 09:17:41;;;;;;;17.83;10.50;;;12.10;99.90;;;12.38;nan;101316.22;4984971;28;20763;-65
2023/04/18 09:20:10;;;;;;;6.77;3.40;;;12.30;99.90;;;12.54;nan;101307.31;5002028;28;20644;-66
2023/04/18 09:22:50;;;;;;;10.27;7.53;;;12.40;99.90;;;12.63;nan;101311.91;4995562;28;21094;-67
2023/04/18 09:25:29;;;;;;;8.80;4.77;;;12.50;99.90;;;12.68;nan;101309.78;4994199;28;20626;-67
2023/04/18 09:27:59;;;;;;;9.47;6.93;;;12.60;99.90;;;12.57;nan;101314.94;4997334;28;20645;-66
2023/04/18 09:30:39;;;;;;;9.90;6.60;;;12.50;99.90;;;12.56;nan;101316.75;5012167;28;20651;-67
2023/04/18 09:33:08;;;;;;;8.27;6.40;;;12.40;99.90;;;12.56;nan;101310.66;5010569;28;20676;-67
2023/04/18 09:35:37;;;;;;;5.50;4.03;;;12.50;99.90;;;12.61;nan;101314.63;5013198;28;20707;-66
2023/04/18 09:38:05;;;;;;;4.60;3.07;;;12.50;99.90;;;12.51;nan;101318.81;5011313;28;20641;-67
2023/04/18 09:40:32;;;;;;;4.40;3.33;;;12.50;99.90;;;12.41;nan;101312.56;5012872;28;20630;-66
2023/04/18 09:42:59;;;;;;;14.63;8.80;;;12.40;99.90;;;12.46;nan;101311.28;5008707;28;20641;-67
2023/04/18 09:45:26;;;;;;;12.23;6.97;;;12.30;99.90;;;12.63;nan;101312.72;5010172;28;20647;-66
2023/04/18 09:47:54;;;;;;;10.50;8.17;;;12.50;99.90;;;12.75;nan;101300.56;5005405;28;20630;-66
2023/04/18 09:50:21;;;;;;;9.20;6.10;;;12.60;99.90;;;12.84;nan;101305.19;5011105;28;20641;-66
2023/04/18 09:52:48;;;;;;;8.20;5.37;;;12.70;99.90;;;12.97;nan;101300.72;4999133;28;20676;-67
2023/04/18 09:55:18;;;;;;;7.43;5.90;;;12.80;99.90;;;13.14;nan;101308.25;5006084;28;20752;-66
2023/04/18 09:57:47;;;;;;;6.70;2.83;;;13.00;99.90;;;13.25;nan;101305.69;5006990;28;21032;-66
2023/04/18 10:00:25;;;;;;;8.17;6.43;;;13.10;99.90;;;13.35;nan;101298.84;5010206;28;20629;-67
2023/04/18 10:02:58;;;;;;;14.57;7.57;;;13.20;99.90;;;13.46;nan;101304.13;5008203;28;20637;-64
2023/04/18 10:05:32;;;;;;;9.67;6.70;;;13.30;99.90;;;13.57;nan;101298.94;5007879;28;21164;-67
2023/04/18 10:07:59;;;;;;;10.90;7.50;;;13.40;99.90;;;13.61;nan;101312.66;5008681;28;20627;-68
2023/04/18 10:10:27;;;;;;;9.93;6.47;;;13.50;99.90;;;13.74;nan;101303.75;5000425;28;20704;-66
2023/04/18 10:12:57;;;;;;;13.20;8.00;;;13.60;99.90;;;14.07;nan;101305.66;5002055;28;20680;-66
2023/04/18 10:15:26;;;;;;;6.50;4.60;;;13.90;99.90;;;14.47;nan;101314.81;5004627;28;20687;-67
2023/04/18 10:17:56;;;;;;;3.30;2.50;;;14.30;99.90;;;14.85;nan;101306.56;5011433;28;20633;-66
2023/04/18 10:20:33;;;;;;;4.90;2.70;;;14.70;99.90;;;15.45;nan;101308.72;5012030;28;21986;-67
2023/04/18 10:23:34;;;;;;;9.67;4.20;;;15.30;99.90;;;15.57;nan;101302.44;5013153;28;20629;-66
2023/04/18 10:26:07;;;;;;;8.60;5.37;;;15.50;99.90;;;16.30;nan;101297.13;5011068;28;20641;-70
2023/04/18 10:28:57;;;;;;;7.50;5.10;;;15.90;99.90;;;16.89;nan;101306.00;5012580;28;21046;-67
2023/04/18 10:31:26;;;;;;;8.43;5.70;;;16.60;99.90;;;17.01;nan;101293.56;5008872;28;20709;-66
2023/04/18 10:33:58;;;;;;;7.60;5.97;;;16.70;99.90;;;16.86;nan;101305.44;5011420;28;21256;-65